Time,TemperatureF,DewpointF,PressureIn,WindDirection,WindDirectionDegrees,WindSpeedMPH,WindSpeedGustMPH,Humidity,HourlyPrecipIn,Conditions,Clouds,dailyrainin,SoftwareType,DateUTC
2013-11-13 00:02:00,22.9,18.8,30.74,SW,217,0.0,1.0,84,0.00,,,0.00,Wunderground v.1.15,2013-11-13 06:02:00,
2013-11-13 00:08:00,22.7,18.9,30.74,SW,217,1.0,1.0,85,0.00,,,0.00,Wunderground v.1.15,2013-11-13 06:08:00,
2013-11-13 00:14:00,22.4,18.6,30.74,SW,217,0.0,1.0,85,0.00,,,0.00,Wunderground v.1.15,2013-11-13 06:14:00,
2013-11-13 00:19:00,22.3,18.5,30.74,SW,228,0.0,1.0,85,0.00,,,0.00,Wunderground v.1.15,2013-11-13 06:19:00,
2013-11-13 00:25:00,22.2,18.4,30.74,SW,233,0.0,2.0,85,0.00,,,0.00,Wunderground v.1.15,2013-11-13 06:25:00,
2013-11-13 00:30:00,22.1,18.3,30.74,SW,225,1.0,1.0,85,0.00,,,0.00,Wunderground v.1.15,2013-11-13 06:30:00,
2013-11-13 00:35:00,21.9,18.1,30.74,SSW,212,0.0,1.0,85,0.00,,,0.00,Wunderground v.1.15,2013-11-13 06:35:00,
2013-11-13 00:41:00,21.9,18.4,30.74,SSW,212,0.0,1.0,86,0.00,,,0.00,Wunderground v.1.15,2013-11-13 06:41:00,
2013-11-13 00:47:00,21.7,18.4,30.74,SSW,213,0.0,1.0,87,0.00,,,0.00,Wunderground v.1.15,2013-11-13 06:47:00,
2013-11-13 00:53:00,21.7,18.7,30.73,SSW,212,0.0,1.0,88,0.00,,,0.00,Wunderground v.1.15,2013-11-13 06:53:00,
2013-11-13 00:59:00,21.6,18.9,30.73,SSW,212,0.0,1.0,89,0.00,,,0.00,Wunderground v.1.15,2013-11-13 06:59:00,
2013-11-13 01:04:00,21.8,19.1,30.73,SSW,212,0.0,0.0,89,0.00,,,0.00,Wunderground v.1.15,2013-11-13 07:04:00,
2013-11-13 01:10:00,21.8,19.1,30.73,SSW,213,0.0,0.0,89,0.00,,,0.00,Wunderground v.1.15,2013-11-13 07:10:00,
2013-11-13 01:16:00,21.9,19.4,30.73,SSW,212,0.0,1.0,90,0.00,,,0.00,Wunderground v.1.15,2013-11-13 07:16:00,
2013-11-13 01:21:00,21.9,19.2,30.73,SW,217,0.0,0.0,89,0.00,,,0.00,Wunderground v.1.15,2013-11-13 07:21:00,
2013-11-13 01:27:00,21.7,19.0,30.73,SW,228,0.0,1.0,89,0.00,,,0.00,Wunderground v.1.15,2013-11-13 07:27:00,
2013-11-13 01:33:00,21.5,18.8,30.73,SW,228,1.0,2.0,89,0.00,,,0.00,Wunderground v.1.15,2013-11-13 07:33:00,
2013-11-13 01:39:00,21.4,18.9,30.73,SW,231,1.0,2.0,90,0.00,,,0.00,Wunderground v.1.15,2013-11-13 07:39:00,
2013-11-13 01:44:00,21.2,18.7,30.73,SW,231,1.0,2.0,90,0.00,,,0.00,Wunderground v.1.15,2013-11-13 07:44:00,
2013-11-13 01:50:00,21.1,18.6,30.73,SW,230,0.0,2.0,90,0.00,,,0.00,Wunderground v.1.15,2013-11-13 07:50:00,
2013-11-13 01:56:00,20.9,18.4,30.73,SW,231,0.0,2.0,90,0.00,,,0.00,Wunderground v.1.15,2013-11-13 07:56:00,
2013-11-13 02:02:00,20.9,18.4,30.73,SW,231,0.0,0.0,90,0.00,,,0.00,Wunderground v.1.15,2013-11-13 08:02:00,
2013-11-13 02:07:00,20.7,18.2,30.73,SW,231,0.0,0.0,90,0.00,,,0.00,Wunderground v.1.15,2013-11-13 08:07:00,
2013-11-13 02:13:00,20.5,18.0,30.74,SW,231,0.0,0.0,90,0.00,,,0.00,Wunderground v.1.15,2013-11-13 08:13:00,
2013-11-13 02:19:00,20.9,18.7,30.74,SW,231,0.0,0.0,91,0.00,,,0.00,Wunderground v.1.15,2013-11-13 08:19:00,
2013-11-13 02:25:00,20.9,18.7,30.74,SW,231,0.0,0.0,91,0.00,,,0.00,Wunderground v.1.15,2013-11-13 08:25:00,
2013-11-13 02:31:00,20.8,18.6,30.74,SW,231,0.0,2.0,91,0.00,,,0.00,Wunderground v.1.15,2013-11-13 08:31:00,
2013-11-13 02:37:00,20.9,18.7,30.74,SW,231,0.0,2.0,91,0.00,,,0.00,Wunderground v.1.15,2013-11-13 08:37:00,
2013-11-13 02:43:00,20.8,18.6,30.74,SW,231,0.0,2.0,91,0.00,,,0.00,Wunderground v.1.15,2013-11-13 08:43:00,
2013-11-13 02:48:00,20.8,18.6,30.74,SW,231,0.0,2.0,91,0.00,,,0.00,Wunderground v.1.15,2013-11-13 08:48:00,
2013-11-13 02:54:00,20.6,18.4,30.74,SW,230,0.0,2.0,91,0.00,,,0.00,Wunderground v.1.15,2013-11-13 08:54:00,
2013-11-13 03:00:00,20.6,18.4,30.73,SW,231,0.0,0.0,91,0.00,,,0.00,Wunderground v.1.15,2013-11-13 09:00:00,
2013-11-13 03:06:00,20.6,18.4,30.73,SW,231,0.0,0.0,91,0.00,,,0.00,Wunderground v.1.15,2013-11-13 09:06:00,
2013-11-13 03:12:00,20.5,18.3,30.73,SW,231,0.0,0.0,91,0.00,,,0.00,Wunderground v.1.15,2013-11-13 09:12:00,
2013-11-13 03:17:00,20.6,18.6,30.73,SW,231,0.0,0.0,92,0.00,,,0.00,Wunderground v.1.15,2013-11-13 09:17:00,
2013-11-13 03:23:00,20.6,18.4,30.72,SW,231,0.0,0.0,91,0.00,,,0.00,Wunderground v.1.15,2013-11-13 09:23:00,
2013-11-13 03:29:00,20.6,18.4,30.72,SW,230,0.0,0.0,91,0.00,,,0.00,Wunderground v.1.15,2013-11-13 09:29:00,
2013-11-13 03:35:00,20.5,18.3,30.72,SW,230,0.0,0.0,91,0.00,,,0.00,Wunderground v.1.15,2013-11-13 09:35:00,
2013-11-13 03:41:00,20.4,18.2,30.72,SW,231,0.0,0.0,91,0.00,,,0.00,Wunderground v.1.15,2013-11-13 09:41:00,
2013-11-13 03:46:00,20.2,18.0,30.72,SW,231,0.0,0.0,91,0.00,,,0.00,Wunderground v.1.15,2013-11-13 09:46:00,
2013-11-13 03:52:00,20.1,17.9,30.71,SW,231,0.0,0.0,91,0.00,,,0.00,Wunderground v.1.15,2013-11-13 09:52:00,
2013-11-13 03:58:00,19.9,17.7,30.71,SW,231,0.0,0.0,91,0.00,,,0.00,Wunderground v.1.15,2013-11-13 09:58:00,
2013-11-13 04:04:00,20.0,17.8,30.71,SW,231,0.0,0.0,91,0.00,,,0.00,Wunderground v.1.15,2013-11-13 10:04:00,
2013-11-13 04:09:00,19.9,17.7,30.71,SW,231,0.0,0.0,91,0.00,,,0.00,Wunderground v.1.15,2013-11-13 10:09:00,
2013-11-13 04:15:00,19.8,17.6,30.72,SW,231,0.0,0.0,91,0.00,,,0.00,Wunderground v.1.15,2013-11-13 10:15:00,
2013-11-13 04:21:00,19.7,17.5,30.72,SW,229,0.0,1.0,91,0.00,,,0.00,Wunderground v.1.15,2013-11-13 10:21:00,
2013-11-13 04:26:00,19.4,17.2,30.72,SW,231,0.0,1.0,91,0.00,,,0.00,Wunderground v.1.15,2013-11-13 10:26:00,
2013-11-13 04:32:00,19.2,17.0,30.72,SW,229,0.0,0.0,91,0.00,,,0.00,Wunderground v.1.15,2013-11-13 10:32:00,
2013-11-13 04:38:00,19.0,17.1,30.72,SW,229,0.0,0.0,92,0.00,,,0.00,Wunderground v.1.15,2013-11-13 10:38:00,
2013-11-13 04:44:00,18.9,17.0,30.72,SW,229,0.0,0.0,92,0.00,,,0.00,Wunderground v.1.15,2013-11-13 10:44:00,
2013-11-13 04:49:00,19.1,17.4,30.72,SW,229,0.0,1.0,93,0.00,,,0.00,Wunderground v.1.15,2013-11-13 10:49:00,
2013-11-13 04:55:00,19.1,17.2,30.72,SW,229,1.0,1.0,92,0.00,,,0.00,Wunderground v.1.15,2013-11-13 10:55:00,
2013-11-13 05:00:00,18.9,17.0,30.71,SW,229,0.0,0.0,92,0.00,,,0.00,Wunderground v.1.15,2013-11-13 11:00:00,
2013-11-13 05:06:00,19.0,17.3,30.71,SW,229,0.0,0.0,93,0.00,,,0.00,Wunderground v.1.15,2013-11-13 11:06:00,
2013-11-13 05:11:00,19.2,17.5,30.72,SW,229,0.0,0.0,93,0.00,,,0.00,Wunderground v.1.15,2013-11-13 11:11:00,
2013-11-13 05:17:00,19.2,17.5,30.71,SW,229,0.0,0.0,93,0.00,,,0.00,Wunderground v.1.15,2013-11-13 11:17:00,
2013-11-13 05:23:00,19.1,17.4,30.71,SW,229,0.0,0.0,93,0.00,,,0.00,Wunderground v.1.15,2013-11-13 11:23:00,
2013-11-13 05:29:00,19.0,17.3,30.71,SW,229,0.0,0.0,93,0.00,,,0.00,Wunderground v.1.15,2013-11-13 11:29:00,
2013-11-13 05:34:00,18.9,17.0,30.71,SW,230,0.0,2.0,92,0.00,,,0.00,Wunderground v.1.15,2013-11-13 11:34:00,
2013-11-13 05:40:00,18.9,17.2,30.71,SW,229,0.0,2.0,93,0.00,,,0.00,Wunderground v.1.15,2013-11-13 11:40:00,
2013-11-13 05:46:00,18.8,17.1,30.71,SW,229,0.0,2.0,93,0.00,,,0.00,Wunderground v.1.15,2013-11-13 11:46:00,
2013-11-13 05:52:00,18.8,17.1,30.71,SW,229,0.0,2.0,93,0.00,,,0.00,Wunderground v.1.15,2013-11-13 11:52:00,
2013-11-13 05:58:00,18.7,17.0,30.71,SW,229,0.0,2.0,93,0.00,,,0.00,Wunderground v.1.15,2013-11-13 11:58:00,
2013-11-13 06:04:00,18.5,16.8,30.72,SW,229,0.0,0.0,93,0.00,,,0.00,Wunderground v.1.15,2013-11-13 12:04:00,
2013-11-13 06:10:00,18.4,16.7,30.72,SW,229,0.0,0.0,93,0.00,,,0.00,Wunderground v.1.15,2013-11-13 12:10:00,
2013-11-13 06:16:00,18.3,16.6,30.71,SW,229,0.0,0.0,93,0.00,,,0.00,Wunderground v.1.15,2013-11-13 12:16:00,
2013-11-13 06:21:00,18.1,16.4,30.72,SW,229,0.0,0.0,93,0.00,,,0.00,Wunderground v.1.15,2013-11-13 12:21:00,
2013-11-13 06:27:00,18.0,16.3,30.72,SW,231,0.0,0.0,93,0.00,,,0.00,Wunderground v.1.15,2013-11-13 12:27:00,
2013-11-13 06:33:00,17.8,16.1,30.72,SW,231,0.0,0.0,93,0.00,,,0.00,Wunderground v.1.15,2013-11-13 12:33:00,
2013-11-13 06:39:00,17.8,16.1,30.72,SW,230,0.0,0.0,93,0.00,,,0.00,Wunderground v.1.15,2013-11-13 12:39:00,
2013-11-13 06:45:00,17.9,16.2,30.72,SW,231,0.0,0.0,93,0.00,,,0.00,Wunderground v.1.15,2013-11-13 12:45:00,
2013-11-13 06:51:00,17.8,16.1,30.72,SW,231,0.0,0.0,93,0.00,,,0.00,Wunderground v.1.15,2013-11-13 12:51:00,
2013-11-13 06:57:00,17.9,16.2,30.72,SW,231,0.0,0.0,93,0.00,,,0.00,Wunderground v.1.15,2013-11-13 12:57:00,
2013-11-13 07:02:00,18.0,16.3,30.71,SW,229,0.0,1.0,93,0.00,,,0.00,Wunderground v.1.15,2013-11-13 13:02:00,
2013-11-13 07:08:00,18.3,16.9,30.71,SW,232,0.0,1.0,94,0.00,,,0.00,Wunderground v.1.15,2013-11-13 13:08:00,
2013-11-13 07:14:00,18.7,17.3,30.71,WSW,255,1.0,1.0,94,0.00,,,0.00,Wunderground v.1.15,2013-11-13 13:14:00,
2013-11-13 07:20:00,19.0,17.6,30.71,WSW,256,0.0,0.0,94,0.00,,,0.00,Wunderground v.1.15,2013-11-13 13:20:00,
2013-11-13 07:25:00,19.2,17.8,30.71,WSW,251,0.0,1.0,94,0.00,,,0.00,Wunderground v.1.15,2013-11-13 13:25:00,
2013-11-13 07:31:00,19.5,18.1,30.71,SW,231,0.0,1.0,94,0.00,,,0.00,Wunderground v.1.15,2013-11-13 13:31:00,
2013-11-13 07:37:00,20.0,18.6,30.71,WSW,252,1.0,1.0,94,0.00,,,0.00,Wunderground v.1.15,2013-11-13 13:37:00,
2013-11-13 07:43:00,20.4,18.9,30.71,South,172,0.0,1.0,94,0.00,,,0.00,Wunderground v.1.15,2013-11-13 13:43:00,
2013-11-13 07:49:00,21.0,19.5,30.70,WSW,238,0.0,1.0,94,0.00,,,0.00,Wunderground v.1.15,2013-11-13 13:49:00,
2013-11-13 07:55:00,21.5,20.0,30.70,SW,232,0.0,1.0,94,0.00,,,0.00,Wunderground v.1.15,2013-11-13 13:55:00,
2013-11-13 08:00:00,21.8,20.1,30.70,WSW,249,0.0,0.0,93,0.00,,,0.00,Wunderground v.1.15,2013-11-13 14:00:00,
2013-11-13 08:05:00,22.1,20.4,30.70,WSW,249,0.0,1.0,93,0.00,,,0.00,Wunderground v.1.15,2013-11-13 14:05:00,
2013-11-13 08:11:00,22.5,20.8,30.70,WSW,251,0.0,0.0,93,0.00,,,0.00,Wunderground v.1.15,2013-11-13 14:11:00,
2013-11-13 08:17:00,22.9,20.9,30.70,WSW,252,0.0,0.0,92,0.00,,,0.00,Wunderground v.1.15,2013-11-13 14:17:00,
2013-11-13 08:23:00,23.3,21.1,30.70,WSW,252,0.0,0.0,91,0.00,,,0.00,Wunderground v.1.15,2013-11-13 14:23:00,
2013-11-13 08:28:00,24.0,21.5,30.70,WSW,252,0.0,0.0,90,0.00,,,0.00,Wunderground v.1.15,2013-11-13 14:28:00,
2013-11-13 08:34:00,24.6,21.6,30.70,WSW,252,0.0,2.0,88,0.00,,,0.00,Wunderground v.1.15,2013-11-13 14:34:00,
2013-11-13 08:40:00,25.5,22.4,30.70,East,95,0.0,2.0,88,0.00,,,0.00,Wunderground v.1.15,2013-11-13 14:40:00,
2013-11-13 08:46:00,26.6,23.0,30.70,ESE,113,0.0,2.0,86,0.00,,,0.00,Wunderground v.1.15,2013-11-13 14:46:00,
2013-11-13 08:51:00,27.4,23.2,30.70,ESE,113,0.0,2.0,84,0.00,,,0.00,Wunderground v.1.15,2013-11-13 14:51:00,
2013-11-13 08:57:00,28.1,23.0,30.69,ESE,107,0.0,2.0,81,0.00,,,0.00,Wunderground v.1.15,2013-11-13 14:57:00,
2013-11-13 09:03:00,28.5,23.1,30.69,South,190,0.0,0.0,80,0.00,,,0.00,Wunderground v.1.15,2013-11-13 15:03:00,
2013-11-13 09:08:00,28.8,23.1,30.69,ESE,117,0.0,1.0,79,0.00,,,0.00,Wunderground v.1.15,2013-11-13 15:08:00,
2013-11-13 09:14:00,29.3,23.3,30.69,SE,129,0.0,1.0,78,0.00,,,0.00,Wunderground v.1.15,2013-11-13 15:14:00,
2013-11-13 09:20:00,29.8,23.5,30.69,ESE,112,0.0,0.0,77,0.00,,,0.00,Wunderground v.1.15,2013-11-13 15:20:00,
2013-11-13 09:26:00,30.5,22.9,30.69,WSW,246,0.0,1.0,73,0.00,,,0.00,Wunderground v.1.15,2013-11-13 15:26:00,
2013-11-13 09:31:00,31.3,23.0,30.69,SE,129,1.0,1.0,71,0.00,,,0.00,Wunderground v.1.15,2013-11-13 15:31:00,
2013-11-13 09:37:00,32.3,22.2,30.69,SW,221,1.0,4.0,66,0.00,,,0.00,Wunderground v.1.15,2013-11-13 15:37:00,
2013-11-13 09:43:00,32.8,22.3,30.69,South,181,1.0,1.0,65,0.00,,,0.00,Wunderground v.1.15,2013-11-13 15:43:00,
2013-11-13 09:49:00,33.3,22.1,30.69,East,100,0.0,1.0,63,0.00,,,0.00,Wunderground v.1.15,2013-11-13 15:49:00,
2013-11-13 09:54:00,33.8,21.8,30.69,West,276,1.0,1.0,61,0.00,,,0.00,Wunderground v.1.15,2013-11-13 15:54:00,
2013-11-13 10:00:00,34.5,23.2,30.69,SSE,158,1.0,1.0,63,0.00,,,0.00,Wunderground v.1.15,2013-11-13 16:00:00,
2013-11-13 10:06:00,34.9,21.6,30.68,SW,228,1.0,2.0,58,0.00,,,0.00,Wunderground v.1.15,2013-11-13 16:06:00,
2013-11-13 10:12:00,35.4,21.2,30.68,WSW,253,2.0,3.0,56,0.00,,,0.00,Wunderground v.1.15,2013-11-13 16:12:00,
2013-11-13 10:17:00,35.9,22.1,30.68,SW,233,1.0,3.0,57,0.00,,,0.00,Wunderground v.1.15,2013-11-13 16:17:00,
2013-11-13 10:23:00,36.8,22.6,30.68,WSW,238,1.0,3.0,56,0.00,,,0.00,Wunderground v.1.15,2013-11-13 16:23:00,
2013-11-13 10:29:00,37.1,22.4,30.68,West,266,2.0,3.0,55,0.00,,,0.00,Wunderground v.1.15,2013-11-13 16:29:00,
2013-11-13 10:35:00,37.9,22.3,30.67,ESE,108,2.0,3.0,53,0.00,,,0.00,Wunderground v.1.15,2013-11-13 16:35:00,
2013-11-13 10:40:00,38.3,22.6,30.67,SW,224,2.0,3.0,53,0.00,,,0.00,Wunderground v.1.15,2013-11-13 16:40:00,
2013-11-13 10:46:00,38.5,21.9,30.66,SW,232,2.0,5.0,51,0.00,,,0.00,Wunderground v.1.15,2013-11-13 16:46:00,
2013-11-13 10:52:00,38.8,21.3,30.66,SW,229,2.0,3.0,49,0.00,,,0.00,Wunderground v.1.15,2013-11-13 16:52:00,
2013-11-13 10:58:00,39.4,23.2,30.65,West,267,2.0,4.0,52,0.00,,,0.00,Wunderground v.1.15,2013-11-13 16:58:00,
2013-11-13 11:03:00,39.7,21.6,30.65,WSW,249,3.0,3.0,48,0.00,,,0.00,Wunderground v.1.15,2013-11-13 17:03:00,
2013-11-13 11:09:00,39.9,20.3,30.65,West,259,3.0,5.0,45,0.00,,,0.00,Wunderground v.1.15,2013-11-13 17:09:00,
2013-11-13 11:15:00,40.4,22.2,30.64,WSW,245,3.0,3.0,48,0.00,,,0.00,Wunderground v.1.15,2013-11-13 17:15:00,
2013-11-13 11:20:00,40.6,20.4,30.64,West,263,4.0,7.0,44,0.00,,,0.00,Wunderground v.1.15,2013-11-13 17:20:00,
2013-11-13 11:26:00,40.7,20.5,30.64,West,270,4.0,7.0,44,0.00,,,0.00,Wunderground v.1.15,2013-11-13 17:26:00,
2013-11-13 11:32:00,41.1,21.9,30.63,WSW,258,3.0,5.0,46,0.00,,,0.00,Wunderground v.1.15,2013-11-13 17:32:00,
2013-11-13 11:38:00,41.9,22.1,30.63,SW,225,2.0,5.0,45,0.00,,,0.00,Wunderground v.1.15,2013-11-13 17:38:00,
2013-11-13 11:43:00,41.9,19.9,30.62,WNW,292,3.0,5.0,41,0.00,,,0.00,Wunderground v.1.15,2013-11-13 17:43:00,
2013-11-13 11:49:00,42.0,21.6,30.62,SW,226,4.0,7.0,44,0.00,,,0.00,Wunderground v.1.15,2013-11-13 17:49:00,
2013-11-13 11:55:00,42.3,21.4,30.61,West,267,4.0,5.0,43,0.00,,,0.00,Wunderground v.1.15,2013-11-13 17:55:00,
2013-11-13 12:00:00,43.1,22.6,30.61,SW,217,3.0,3.0,44,0.00,,,0.00,Wunderground v.1.15,2013-11-13 18:00:00,
2013-11-13 12:05:00,43.9,22.8,30.60,SW,231,2.0,3.0,43,0.00,,,0.00,Wunderground v.1.15,2013-11-13 18:05:00,
2013-11-13 12:11:00,44.5,22.2,30.60,West,280,1.0,3.0,41,0.00,,,0.00,Wunderground v.1.15,2013-11-13 18:11:00,
2013-11-13 12:17:00,44.5,21.6,30.59,SW,228,3.0,3.0,40,0.00,,,0.00,Wunderground v.1.15,2013-11-13 18:17:00,
2013-11-13 12:23:00,45.0,21.5,30.58,WNW,297,3.0,4.0,39,0.00,,,0.00,Wunderground v.1.15,2013-11-13 18:23:00,
2013-11-13 12:28:00,45.8,22.2,30.58,West,264,2.0,4.0,39,0.00,,,0.00,Wunderground v.1.15,2013-11-13 18:28:00,
2013-11-13 12:34:00,46.0,21.8,30.58,West,278,2.0,9.0,38,0.00,,,0.00,Wunderground v.1.15,2013-11-13 18:34:00,
2013-11-13 12:40:00,45.9,21.1,30.57,West,260,3.0,3.0,37,0.00,,,0.00,Wunderground v.1.15,2013-11-13 18:40:00,
2013-11-13 12:46:00,46.1,21.2,30.56,WSW,249,3.0,9.0,37,0.00,,,0.00,Wunderground v.1.15,2013-11-13 18:46:00,
2013-11-13 12:52:00,46.8,21.9,30.56,West,278,2.0,9.0,37,0.00,,,0.00,Wunderground v.1.15,2013-11-13 18:52:00,
2013-11-13 12:58:00,47.3,21.0,30.55,SW,231,2.0,9.0,35,0.00,,,0.00,Wunderground v.1.15,2013-11-13 18:58:00,
2013-11-13 13:04:00,47.6,21.9,30.55,West,263,3.0,5.0,36,0.00,,,0.00,Wunderground v.1.15,2013-11-13 19:04:00,
2013-11-13 13:09:00,47.7,20.7,30.55,West,260,3.0,5.0,34,0.00,,,0.00,Wunderground v.1.15,2013-11-13 19:09:00,
2013-11-13 13:15:00,47.4,19.7,30.55,West,281,4.0,5.0,33,0.00,,,0.00,Wunderground v.1.15,2013-11-13 19:15:00,
2013-11-13 13:21:00,47.6,21.3,30.54,WNW,293,4.0,4.0,35,0.00,,,0.00,Wunderground v.1.15,2013-11-13 19:21:00,
2013-11-13 13:27:00,48.1,21.0,30.54,NW,305,3.0,5.0,34,0.00,,,0.00,Wunderground v.1.15,2013-11-13 19:27:00,
2013-11-13 13:32:00,48.2,19.7,30.53,West,264,3.0,7.0,32,0.00,,,0.00,Wunderground v.1.15,2013-11-13 19:32:00,
2013-11-13 13:38:00,48.5,20.7,30.53,WSW,256,3.0,7.0,33,0.00,,,0.00,Wunderground v.1.15,2013-11-13 19:38:00,
2013-11-13 13:44:00,48.7,19.4,30.52,NW,312,4.0,7.0,31,0.00,,,0.00,Wunderground v.1.15,2013-11-13 19:44:00,
2013-11-13 13:50:00,48.7,20.1,30.52,WNW,294,4.0,7.0,32,0.00,,,0.00,Wunderground v.1.15,2013-11-13 19:50:00,
2013-11-13 13:56:00,48.6,20.8,30.52,WNW,284,4.0,7.0,33,0.00,,,0.00,Wunderground v.1.15,2013-11-13 19:56:00,
2013-11-13 14:02:00,48.7,20.1,30.51,NW,306,3.0,3.0,32,0.00,,,0.00,Wunderground v.1.15,2013-11-13 20:02:00,
2013-11-13 14:08:00,49.4,21.5,30.51,SW,214,3.0,4.0,33,0.00,,,0.00,Wunderground v.1.15,2013-11-13 20:08:00,
2013-11-13 14:13:00,49.3,20.6,30.51,NW,312,3.0,4.0,32,0.00,,,0.00,Wunderground v.1.15,2013-11-13 20:13:00,
2013-11-13 14:19:00,49.3,19.9,30.50,West,266,4.0,9.0,31,0.00,,,0.00,Wunderground v.1.15,2013-11-13 20:19:00,
2013-11-13 14:25:00,49.2,19.8,30.50,West,281,4.0,7.0,31,0.00,,,0.00,Wunderground v.1.15,2013-11-13 20:25:00,
2013-11-13 14:31:00,49.6,20.9,30.50,West,270,4.0,9.0,32,0.00,,,0.00,Wunderground v.1.15,2013-11-13 20:31:00,
2013-11-13 14:36:00,49.8,21.1,30.49,SW,219,4.0,9.0,32,0.00,,,0.00,Wunderground v.1.15,2013-11-13 20:36:00,
2013-11-13 14:42:00,49.9,21.2,30.49,West,259,4.0,9.0,32,0.00,,,0.00,Wunderground v.1.15,2013-11-13 20:42:00,
2013-11-13 14:48:00,50.0,21.3,30.49,NW,321,4.0,9.0,32,0.00,,,0.00,Wunderground v.1.15,2013-11-13 20:48:00,
2013-11-13 14:54:00,50.3,20.8,30.49,WNW,285,4.0,9.0,31,0.00,,,0.00,Wunderground v.1.15,2013-11-13 20:54:00,
2013-11-13 15:00:00,50.2,19.9,30.48,WNW,297,4.0,4.0,30,0.00,,,0.00,Wunderground v.1.15,2013-11-13 21:00:00,
2013-11-13 15:06:00,50.4,21.6,30.48,SW,234,3.0,4.0,32,0.00,,,0.00,Wunderground v.1.15,2013-11-13 21:06:00,
2013-11-13 15:12:00,50.4,20.9,30.48,West,281,3.0,3.0,31,0.00,,,0.00,Wunderground v.1.15,2013-11-13 21:12:00,
2013-11-13 15:17:00,50.4,20.9,30.48,West,274,3.0,5.0,31,0.00,,,0.00,Wunderground v.1.15,2013-11-13 21:17:00,
2013-11-13 15:23:00,50.4,20.9,30.48,SW,226,3.0,5.0,31,0.00,,,0.00,Wunderground v.1.15,2013-11-13 21:23:00,
2013-11-13 15:29:00,50.5,20.9,30.47,West,278,3.0,5.0,31,0.00,,,0.00,Wunderground v.1.15,2013-11-13 21:29:00,
2013-11-13 15:35:00,51.0,20.6,30.47,West,264,3.0,10.0,30,0.00,,,0.00,Wunderground v.1.15,2013-11-13 21:35:00,
2013-11-13 15:40:00,51.2,20.0,30.47,WSW,253,2.0,10.0,29,0.00,,,0.00,Wunderground v.1.15,2013-11-13 21:40:00,
2013-11-13 15:46:00,51.3,20.9,30.47,SW,215,2.0,10.0,30,0.00,,,0.00,Wunderground v.1.15,2013-11-13 21:46:00,
2013-11-13 15:52:00,51.4,20.2,30.46,WSW,257,3.0,10.0,29,0.00,,,0.00,Wunderground v.1.15,2013-11-13 21:52:00,
2013-11-13 15:58:00,51.6,22.7,30.46,West,274,3.0,10.0,32,0.00,,,0.00,Wunderground v.1.15,2013-11-13 21:58:00,
2013-11-13 16:04:00,51.6,21.1,30.46,SSW,211,3.0,4.0,30,0.00,,,0.00,Wunderground v.1.15,2013-11-13 22:04:00,
2013-11-13 16:10:00,51.6,20.3,30.46,WSW,248,2.0,2.0,29,0.00,,,0.00,Wunderground v.1.15,2013-11-13 22:10:00,
2013-11-13 16:16:00,50.9,21.3,30.45,WNW,302,2.0,4.0,31,0.00,,,0.00,Wunderground v.1.15,2013-11-13 22:16:00,
2013-11-13 16:22:00,50.6,20.3,30.45,WSW,246,2.0,2.0,30,0.00,,,0.00,Wunderground v.1.15,2013-11-13 22:22:00,
2013-11-13 16:27:00,50.5,21.7,30.45,SW,236,2.0,3.0,32,0.00,,,0.00,Wunderground v.1.15,2013-11-13 22:27:00,
2013-11-13 16:33:00,50.9,21.3,30.45,WSW,255,2.0,2.0,31,0.00,,,0.00,Wunderground v.1.15,2013-11-13 22:33:00,
2013-11-13 16:39:00,50.8,21.2,30.44,West,270,1.0,2.0,31,0.00,,,0.00,Wunderground v.1.15,2013-11-13 22:39:00,
2013-11-13 16:45:00,50.3,21.5,30.44,West,266,1.0,2.0,32,0.00,,,0.00,Wunderground v.1.15,2013-11-13 22:45:00,
2013-11-13 16:51:00,49.3,21.4,30.44,West,265,1.0,1.0,33,0.00,,,0.00,Wunderground v.1.15,2013-11-13 22:51:00,
2013-11-13 16:57:00,48.5,20.7,30.44,West,271,1.0,1.0,33,0.00,,,0.00,Wunderground v.1.15,2013-11-13 22:57:00,
2013-11-13 17:03:00,47.8,21.4,30.44,West,265,1.0,1.0,35,0.00,,,0.00,Wunderground v.1.15,2013-11-13 23:03:00,
2013-11-13 17:08:00,46.9,21.3,30.44,West,264,0.0,1.0,36,0.00,,,0.00,Wunderground v.1.15,2013-11-13 23:08:00,
2013-11-13 17:14:00,45.6,21.4,30.44,West,264,0.0,0.0,38,0.00,,,0.00,Wunderground v.1.15,2013-11-13 23:14:00,
2013-11-13 17:20:00,44.3,26.8,30.44,West,264,0.0,0.0,50,0.00,,,0.00,Wunderground v.1.15,2013-11-13 23:20:00,
2013-11-13 17:26:00,42.9,26.0,30.43,West,264,0.0,0.0,51,0.00,,,0.00,Wunderground v.1.15,2013-11-13 23:26:00,
2013-11-13 17:31:00,42.2,23.9,30.44,West,264,0.0,6.0,48,0.00,,,0.00,Wunderground v.1.15,2013-11-13 23:31:00,
2013-11-13 17:37:00,41.5,23.7,30.43,West,264,0.0,6.0,49,0.00,,,0.00,Wunderground v.1.15,2013-11-13 23:37:00,
2013-11-13 17:43:00,40.8,24.1,30.43,West,264,0.0,6.0,51,0.00,,,0.00,Wunderground v.1.15,2013-11-13 23:43:00,
2013-11-13 17:49:00,40.0,24.7,30.44,West,264,0.0,6.0,54,0.00,,,0.00,Wunderground v.1.15,2013-11-13 23:49:00,
2013-11-13 17:55:00,39.1,24.7,30.44,West,264,0.0,6.0,56,0.00,,,0.00,Wunderground v.1.15,2013-11-13 23:55:00,
2013-11-13 18:00:00,38.5,24.6,30.44,West,264,0.0,0.0,57,0.00,,,0.00,Wunderground v.1.15,2013-11-14 00:00:00,
2013-11-13 18:06:00,38.0,25.3,30.44,West,265,0.0,0.0,60,0.00,,,0.00,Wunderground v.1.15,2013-11-14 00:06:00,
2013-11-13 18:11:00,37.5,25.7,30.44,West,264,0.0,0.0,62,0.00,,,0.00,Wunderground v.1.15,2013-11-14 00:11:00,
2013-11-13 18:17:00,37.2,25.4,30.44,WSW,245,0.0,1.0,62,0.00,,,0.00,Wunderground v.1.15,2013-11-14 00:17:00,
2013-11-13 18:23:00,37.0,25.6,30.44,WSW,240,0.0,0.0,63,0.00,,,0.00,Wunderground v.1.15,2013-11-14 00:23:00,
2013-11-13 18:29:00,36.6,25.6,30.43,WSW,240,0.0,0.0,64,0.00,,,0.00,Wunderground v.1.15,2013-11-14 00:29:00,
2013-11-13 18:34:00,36.3,26.0,30.43,WSW,240,0.0,1.0,66,0.00,,,0.00,Wunderground v.1.15,2013-11-14 00:34:00,
2013-11-13 18:40:00,35.9,26.0,30.43,WSW,240,0.0,1.0,67,0.00,,,0.00,Wunderground v.1.15,2013-11-14 00:40:00,
2013-11-13 18:46:00,35.5,25.6,30.43,WSW,240,0.0,1.0,67,0.00,,,0.00,Wunderground v.1.15,2013-11-14 00:46:00,
2013-11-13 18:52:00,35.2,26.0,30.43,WSW,240,0.0,1.0,69,0.00,,,0.00,Wunderground v.1.15,2013-11-14 00:52:00,
2013-11-13 18:57:00,35.0,26.2,30.43,WSW,240,0.0,1.0,70,0.00,,,0.00,Wunderground v.1.15,2013-11-14 00:57:00,
2013-11-13 19:03:00,34.8,26.4,30.43,WSW,240,0.0,0.0,71,0.00,,,0.00,Wunderground v.1.15,2013-11-14 01:03:00,
2013-11-13 19:09:00,34.4,27.0,30.42,WSW,240,0.0,0.0,74,0.00,,,0.00,Wunderground v.1.15,2013-11-14 01:09:00,
2013-11-13 19:15:00,34.0,26.9,30.42,WSW,240,0.0,0.0,75,0.00,,,0.00,Wunderground v.1.15,2013-11-14 01:15:00,
2013-11-13 19:20:00,33.6,26.8,30.42,WSW,240,0.0,0.0,76,0.00,,,0.00,Wunderground v.1.15,2013-11-14 01:20:00,
2013-11-13 19:26:00,33.5,27.4,30.42,WSW,240,0.0,0.0,78,0.00,,,0.00,Wunderground v.1.15,2013-11-14 01:26:00,
2013-11-13 19:32:00,33.6,27.5,30.42,WSW,240,0.0,1.0,78,0.00,,,0.00,Wunderground v.1.15,2013-11-14 01:32:00,
2013-11-13 19:38:00,33.1,26.4,30.42,WSW,241,0.0,1.0,76,0.00,,,0.00,Wunderground v.1.15,2013-11-14 01:38:00,
2013-11-13 19:43:00,32.8,25.7,30.42,WSW,240,0.0,1.0,75,0.00,,,0.00,Wunderground v.1.15,2013-11-14 01:43:00,
2013-11-13 19:49:00,32.5,24.5,30.42,WSW,240,0.0,1.0,72,0.00,,,0.00,Wunderground v.1.15,2013-11-14 01:49:00,
2013-11-13 19:55:00,32.5,23.5,30.42,WSW,240,0.0,1.0,69,0.00,,,0.00,Wunderground v.1.15,2013-11-14 01:55:00,
2013-11-13 20:00:00,33.0,23.2,30.42,WSW,240,0.0,0.0,67,0.00,,,0.00,Wunderground v.1.15,2013-11-14 02:00:00,
2013-11-13 20:05:00,33.5,22.6,30.42,WSW,240,0.0,0.0,64,0.00,,,0.00,Wunderground v.1.15,2013-11-14 02:05:00,
2013-11-13 20:11:00,33.8,22.1,30.42,WSW,240,0.0,0.0,62,0.00,,,0.00,Wunderground v.1.15,2013-11-14 02:11:00,
2013-11-13 20:17:00,34.6,21.7,30.42,WSW,241,0.0,0.0,59,0.00,,,0.00,Wunderground v.1.15,2013-11-14 02:17:00,
2013-11-13 20:22:00,35.4,21.7,30.42,West,264,0.0,1.0,57,0.00,,,0.00,Wunderground v.1.15,2013-11-14 02:22:00,
2013-11-13 20:28:00,36.1,21.9,30.42,WSW,246,0.0,1.0,56,0.00,,,0.00,Wunderground v.1.15,2013-11-14 02:28:00,
2013-11-13 20:34:00,36.5,21.0,30.41,SW,224,0.0,2.0,53,0.00,,,0.00,Wunderground v.1.15,2013-11-14 02:34:00,
2013-11-13 20:40:00,37.1,21.1,30.41,West,263,1.0,1.0,52,0.00,,,0.00,Wunderground v.1.15,2013-11-14 02:40:00,
2013-11-13 20:45:00,37.5,21.0,30.41,SSW,210,1.0,1.0,51,0.00,,,0.00,Wunderground v.1.15,2013-11-14 02:45:00,
2013-11-13 20:51:00,37.9,20.9,30.40,West,262,1.0,1.0,50,0.00,,,0.00,Wunderground v.1.15,2013-11-14 02:51:00,
2013-11-13 20:57:00,38.0,21.0,30.40,WSW,240,1.0,2.0,50,0.00,,,0.00,Wunderground v.1.15,2013-11-14 02:57:00,
2013-11-13 21:03:00,37.8,20.8,30.40,SW,228,0.0,1.0,50,0.00,,,0.00,Wunderground v.1.15,2013-11-14 03:03:00,
2013-11-13 21:08:00,37.9,20.9,30.40,WSW,241,0.0,1.0,50,0.00,,,0.00,Wunderground v.1.15,2013-11-14 03:08:00,
2013-11-13 21:14:00,37.9,20.4,30.40,SW,214,0.0,1.0,49,0.00,,,0.00,Wunderground v.1.15,2013-11-14 03:14:00,
2013-11-13 21:20:00,37.8,20.8,30.40,WSW,250,0.0,0.0,50,0.00,,,0.00,Wunderground v.1.15,2013-11-14 03:20:00,
2013-11-13 21:26:00,37.5,20.5,30.40,SW,221,0.0,0.0,50,0.00,,,0.00,Wunderground v.1.15,2013-11-14 03:26:00,
2013-11-13 21:32:00,37.0,20.5,30.40,WSW,250,0.0,2.0,51,0.00,,,0.00,Wunderground v.1.15,2013-11-14 03:32:00,
2013-11-13 21:38:00,36.7,20.3,30.40,SW,232,0.0,2.0,51,0.00,,,0.00,Wunderground v.1.15,2013-11-14 03:38:00,
2013-11-13 21:44:00,36.3,20.3,30.40,SW,232,0.0,2.0,52,0.00,,,0.00,Wunderground v.1.15,2013-11-14 03:44:00,
2013-11-13 21:49:00,36.3,20.3,30.39,SW,236,0.0,2.0,52,0.00,,,0.00,Wunderground v.1.15,2013-11-14 03:49:00,
2013-11-13 21:55:00,36.0,20.1,30.39,SW,236,0.0,2.0,52,0.00,,,0.00,Wunderground v.1.15,2013-11-14 03:55:00,
2013-11-13 22:00:00,35.6,20.6,30.39,West,271,0.0,0.0,54,0.00,,,0.00,Wunderground v.1.15,2013-11-14 04:00:00,
2013-11-13 22:06:00,35.6,20.6,30.38,WSW,246,0.0,0.0,54,0.00,,,0.00,Wunderground v.1.15,2013-11-14 04:06:00,
2013-11-13 22:11:00,35.3,20.3,30.38,WSW,246,0.0,0.0,54,0.00,,,0.00,Wunderground v.1.15,2013-11-14 04:11:00,
2013-11-13 22:17:00,35.2,20.2,30.38,WSW,243,0.0,1.0,54,0.00,,,0.00,Wunderground v.1.15,2013-11-14 04:17:00,
2013-11-13 22:23:00,35.3,20.3,30.38,WSW,243,0.0,0.0,54,0.00,,,0.00,Wunderground v.1.15,2013-11-14 04:23:00,
2013-11-13 22:29:00,35.1,20.1,30.38,WSW,243,0.0,0.0,54,0.00,,,0.00,Wunderground v.1.15,2013-11-14 04:29:00,
2013-11-13 22:34:00,35.0,20.0,30.38,WSW,243,0.0,2.0,54,0.00,,,0.00,Wunderground v.1.15,2013-11-14 04:34:00,
2013-11-13 22:40:00,34.9,19.9,30.38,WSW,243,0.0,2.0,54,0.00,,,0.00,Wunderground v.1.15,2013-11-14 04:40:00,
2013-11-13 22:46:00,35.2,20.2,30.38,NE,36,0.0,2.0,54,0.00,,,0.00,Wunderground v.1.15,2013-11-14 04:46:00,
2013-11-13 22:52:00,35.1,20.1,30.38,ENE,63,0.0,2.0,54,0.00,,,0.00,Wunderground v.1.15,2013-11-14 04:52:00,
2013-11-13 22:58:00,35.1,20.1,30.37,ENE,62,0.0,2.0,54,0.00,,,0.00,Wunderground v.1.15,2013-11-14 04:58:00,
2013-11-13 23:02:00,35.1,20.1,30.37,ENE,62,0.0,0.0,54,0.00,,,0.00,Wunderground v.1.15,2013-11-14 05:02:00,
2013-11-13 23:03:00,35.1,20.1,30.37,ENE,63,0.0,0.0,54,0.00,,,0.00,Wunderground v.1.15,2013-11-14 05:03:00,
2013-11-13 23:06:00,35.2,21.1,30.37,ENE,62,0.0,0.0,56,0.00,,,0.00,Wunderground v.1.15,2013-11-14 05:06:00,
2013-11-13 23:08:00,35.2,20.6,30.37,ENE,70,0.0,0.0,55,0.00,,,0.00,Wunderground v.1.15,2013-11-14 05:08:00,
2013-11-13 23:10:00,35.1,20.5,30.37,ENE,71,0.0,0.0,55,0.00,,,0.00,Wunderground v.1.15,2013-11-14 05:10:00,
2013-11-13 23:15:00,35.4,20.4,30.37,ESE,103,0.0,0.0,54,0.00,,,0.00,Wunderground v.1.15,2013-11-14 05:15:00,
2013-11-13 23:21:00,35.5,20.5,30.37,ESE,108,0.0,0.0,54,0.00,,,0.00,Wunderground v.1.15,2013-11-14 05:21:00,
2013-11-13 23:26:00,35.2,21.9,30.37,ESE,110,0.0,1.0,58,0.00,,,0.00,Wunderground v.1.15,2013-11-14 05:26:00,
2013-11-13 23:32:00,35.0,22.5,30.36,ESE,110,0.0,1.0,60,0.00,,,0.00,Wunderground v.1.15,2013-11-14 05:32:00,
2013-11-13 23:38:00,34.8,24.6,30.36,ESE,110,0.0,1.0,66,0.00,,,0.00,Wunderground v.1.15,2013-11-14 05:38:00,
2013-11-13 23:43:00,34.5,23.6,30.36,ESE,110,0.0,1.0,64,0.00,,,0.00,Wunderground v.1.15,2013-11-14 05:43:00,
2013-11-13 23:49:00,34.1,24.6,30.36,ESE,110,0.0,1.0,68,0.00,,,0.00,Wunderground v.1.15,2013-11-14 05:49:00,
2013-11-13 23:55:00,33.5,23.0,30.36,ESE,110,0.0,1.0,65,0.00,,,0.00,Wunderground v.1.15,2013-11-14 05:55:00,